RYR460W EGCC-LFRS
Flight info
| Callsign | RYR460W |
|---|---|
| Flight time | 1h 11m |
| Altitude | 37000 |
| Route | LISTO P18 TELBA L151 KIDLI UN859 CPT/N0360F230 Y321 PEPIS/N0434F360 Q41 SAM/N0432F350 M195 MARUK N621 LELNA DCT DOMOK/N0415F310 UT260 UPALO UN862 REN A25 GODAN |
| Aircraft | B738/M-SDE3FGILRWY/SB1 |
Departure
| Time | 2026-04-30 18:29 |
|---|---|
| Airport | Manchester Airport (EGCC) |
Arrival
| Time | 2026-04-30 19:41 |
|---|---|
| Airport | Nantes Atlantique Airport (LFRS) |
| Time | Latitude | Longitude | Altitude | Speed | Heading |
|---|---|---|---|---|---|
| 2026-04-30 17:39 | 53.36001 | -2.27131 | 246 ft | 0 kts | 89° |
| 2026-04-30 18:15 | 53.36000 | -2.27172 | 246 ft | 4 kts | 89° |
| 2026-04-30 18:16 | 53.35999 | -2.27259 | 246 ft | 2 kts | 89° |
| 2026-04-30 18:16 | 53.35999 | -2.27262 | 246 ft | 0 kts | 89° |
| 2026-04-30 18:19 | 53.35999 | -2.27257 | 246 ft | 3 kts | 89° |
| 2026-04-30 18:19 | 53.35982 | -2.27223 | 246 ft | 4 kts | 171° |
| 2026-04-30 18:19 | 53.35947 | -2.27233 | 246 ft | 7 kts | 180° |
| 2026-04-30 18:20 | 53.35888 | -2.27225 | 246 ft | 10 kts | 172° |
| 2026-04-30 18:20 | 53.35823 | -2.27259 | 247 ft | 11 kts | 226° |
| 2026-04-30 18:20 | 53.35774 | -2.27351 | 247 ft | 11 kts | 232° |
| 2026-04-30 18:20 | 53.35725 | -2.27453 | 247 ft | 12 kts | 230° |
| 2026-04-30 18:21 | 53.35671 | -2.27563 | 246 ft | 13 kts | 231° |
| 2026-04-30 18:21 | 53.35612 | -2.27676 | 246 ft | 12 kts | 226° |
| 2026-04-30 18:21 | 53.35541 | -2.27786 | 246 ft | 15 kts | 224° |
| 2026-04-30 18:21 | 53.35468 | -2.27902 | 245 ft | 15 kts | 224° |
| 2026-04-30 18:22 | 53.35398 | -2.28014 | 241 ft | 12 kts | 224° |
| 2026-04-30 18:22 | 53.35390 | -2.28027 | 241 ft | 0 kts | 224° |
| 2026-04-30 18:22 | 53.35388 | -2.28031 | 241 ft | 2 kts | 224° |
| 2026-04-30 18:23 | 53.35350 | -2.28092 | 240 ft | 14 kts | 224° |
| 2026-04-30 18:23 | 53.35269 | -2.28235 | 235 ft | 19 kts | 226° |
| 2026-04-30 18:23 | 53.35182 | -2.28405 | 231 ft | 19 kts | 232° |
| 2026-04-30 18:23 | 53.35102 | -2.28572 | 231 ft | 18 kts | 231° |
| 2026-04-30 18:24 | 53.34951 | -2.28850 | 228 ft | 15 kts | 226° |
| 2026-04-30 18:24 | 53.34887 | -2.28962 | 222 ft | 11 kts | 226° |
| 2026-04-30 18:24 | 53.34860 | -2.29008 | 219 ft | 0 kts | 225° |
| 2026-04-30 18:25 | 53.34860 | -2.29009 | 219 ft | 0 kts | 225° |
| 2026-04-30 18:25 | 53.34834 | -2.29043 | 218 ft | 12 kts | 205° |
| 2026-04-30 18:26 | 53.34806 | -2.29057 | 222 ft | 0 kts | 191° |
| 2026-04-30 18:26 | 53.34804 | -2.29058 | 221 ft | 1 kts | 191° |
| 2026-04-30 18:27 | 53.34715 | -2.29041 | 218 ft | 14 kts | 154° |
| 2026-04-30 18:27 | 53.34673 | -2.28952 | 223 ft | 7 kts | 77° |
| 2026-04-30 18:28 | 53.34684 | -2.28923 | 220 ft | 0 kts | 50° |
| 2026-04-30 18:28 | 53.34688 | -2.28915 | 219 ft | 9 kts | 50° |
| 2026-04-30 18:28 | 53.35334 | -2.27580 | 256 ft | 133 kts | 52° |
| 2026-04-30 18:29 | 53.35997 | -2.26194 | 461 ft | 163 kts | 56° |
| 2026-04-30 18:29 | 53.37555 | -2.21241 | 2110 ft | 183 kts | 101° |
| 2026-04-30 18:30 | 53.36261 | -2.18290 | 2459 ft | 210 kts | 146° |
| 2026-04-30 18:30 | 53.32766 | -2.16882 | 3436 ft | 242 kts | 181° |
| 2026-04-30 18:31 | 53.31093 | -2.17164 | 4283 ft | 243 kts | 184° |
| 2026-04-30 18:31 | 53.28279 | -2.17659 | 4953 ft | 246 kts | 185° |
| 2026-04-30 18:32 | 53.24838 | -2.18240 | 5525 ft | 254 kts | 185° |
| 2026-04-30 18:32 | 53.23078 | -2.18522 | 6382 ft | 254 kts | 184° |
| 2026-04-30 18:32 | 53.19517 | -2.19086 | 7925 ft | 259 kts | 184° |
| 2026-04-30 18:33 | 53.17721 | -2.19367 | 8779 ft | 261 kts | 184° |
| 2026-04-30 18:33 | 53.14043 | -2.19938 | 10333 ft | 269 kts | 184° |
| 2026-04-30 18:33 | 53.12121 | -2.20236 | 10689 ft | 290 kts | 184° |
| 2026-04-30 18:34 | 53.10028 | -2.20561 | 10934 ft | 312 kts | 184° |
| 2026-04-30 18:34 | 53.05593 | -2.21253 | 12294 ft | 324 kts | 184° |
| 2026-04-30 18:34 | 53.03345 | -2.21603 | 13132 ft | 326 kts | 183° |
| 2026-04-30 18:35 | 53.01077 | -2.21955 | 13971 ft | 329 kts | 183° |
| 2026-04-30 18:35 | 52.98785 | -2.22313 | 14704 ft | 333 kts | 183° |
| 2026-04-30 18:35 | 52.96468 | -2.22676 | 15470 ft | 336 kts | 183° |
| 2026-04-30 18:36 | 52.91761 | -2.23414 | 16949 ft | 344 kts | 183° |
| 2026-04-30 18:36 | 52.89367 | -2.23788 | 17684 ft | 348 kts | 183° |
| 2026-04-30 18:36 | 52.84502 | -2.24787 | 19032 ft | 358 kts | 190° |
| 2026-04-30 18:37 | 52.82070 | -2.25734 | 19704 ft | 360 kts | 191° |
| 2026-04-30 18:37 | 52.79630 | -2.26734 | 20390 ft | 362 kts | 191° |
| 2026-04-30 18:37 | 52.77207 | -2.27716 | 21040 ft | 365 kts | 191° |
| 2026-04-30 18:37 | 52.74731 | -2.28692 | 21680 ft | 367 kts | 191° |
| 2026-04-30 18:38 | 52.72233 | -2.29659 | 22326 ft | 370 kts | 190° |
| 2026-04-30 18:38 | 52.69717 | -2.30595 | 22944 ft | 371 kts | 187° |
| 2026-04-30 18:38 | 52.67149 | -2.30661 | 23519 ft | 371 kts | 170° |
| 2026-04-30 18:38 | 52.64647 | -2.29637 | 24074 ft | 372 kts | 159° |
| 2026-04-30 18:39 | 52.62352 | -2.27648 | 24558 ft | 376 kts | 148° |
| 2026-04-30 18:39 | 52.60175 | -2.25229 | 25031 ft | 379 kts | 147° |
| 2026-04-30 18:39 | 52.57984 | -2.22759 | 25482 ft | 383 kts | 147° |
| 2026-04-30 18:39 | 52.55776 | -2.20282 | 25937 ft | 386 kts | 147° |
| 2026-04-30 18:40 | 52.53550 | -2.17810 | 26401 ft | 389 kts | 147° |
| 2026-04-30 18:40 | 52.51295 | -2.15326 | 26855 ft | 391 kts | 147° |
| 2026-04-30 18:40 | 52.49022 | -2.12836 | 27270 ft | 395 kts | 147° |
| 2026-04-30 18:40 | 52.46725 | -2.10328 | 27657 ft | 398 kts | 147° |
| 2026-04-30 18:41 | 52.44408 | -2.07803 | 28059 ft | 402 kts | 147° |
| 2026-04-30 18:41 | 52.42068 | -2.05257 | 28470 ft | 404 kts | 147° |
| 2026-04-30 18:41 | 52.39720 | -2.02703 | 28866 ft | 407 kts | 147° |
| 2026-04-30 18:41 | 52.37355 | -2.00131 | 29252 ft | 410 kts | 147° |
| 2026-04-30 18:42 | 52.34966 | -1.97538 | 29600 ft | 413 kts | 148° |
| 2026-04-30 18:42 | 52.30197 | -1.92372 | 30668 ft | 408 kts | 148° |
| 2026-04-30 18:42 | 52.27832 | -1.89817 | 31141 ft | 407 kts | 148° |
| 2026-04-30 18:45 | 52.04143 | -1.64610 | 34911 ft | 407 kts | 148° |
| 2026-04-30 18:45 | 52.01757 | -1.62113 | 35184 ft | 407 kts | 148° |
| 2026-04-30 18:45 | 51.99382 | -1.59600 | 35469 ft | 408 kts | 148° |
| 2026-04-30 18:46 | 51.97006 | -1.57073 | 35761 ft | 408 kts | 147° |
| 2026-04-30 18:46 | 51.94636 | -1.54550 | 36065 ft | 408 kts | 147° |
| 2026-04-30 18:46 | 51.92248 | -1.52013 | 36174 ft | 413 kts | 147° |
| 2026-04-30 18:47 | 51.87403 | -1.46889 | 36315 ft | 420 kts | 147° |
| 2026-04-30 18:47 | 51.84947 | -1.44309 | 36557 ft | 420 kts | 148° |
| 2026-04-30 18:47 | 51.82499 | -1.41745 | 36905 ft | 418 kts | 148° |
| 2026-04-30 18:47 | 51.80060 | -1.39195 | 37175 ft | 419 kts | 148° |
| 2026-04-30 18:48 | 51.77572 | -1.36725 | 37339 ft | 421 kts | 153° |
| 2026-04-30 18:48 | 51.74881 | -1.34832 | 37515 ft | 423 kts | 162° |
| 2026-04-30 18:48 | 51.72072 | -1.33470 | 37807 ft | 422 kts | 163° |
| 2026-04-30 18:48 | 51.69262 | -1.32125 | 38078 ft | 421 kts | 163° |
| 2026-04-30 18:49 | 51.66457 | -1.30742 | 38286 ft | 422 kts | 162° |
| 2026-04-30 18:49 | 51.63647 | -1.29328 | 38510 ft | 423 kts | 162° |
| 2026-04-30 18:49 | 51.60844 | -1.27902 | 38747 ft | 423 kts | 162° |
| 2026-04-30 18:49 | 51.58039 | -1.26474 | 38970 ft | 423 kts | 162° |
| 2026-04-30 18:50 | 51.55237 | -1.25051 | 39131 ft | 422 kts | 162° |
| 2026-04-30 18:50 | 51.49543 | -1.22494 | 39180 ft | 428 kts | 171° |
| 2026-04-30 18:51 | 51.43611 | -1.22304 | 39181 ft | 426 kts | 182° |
| 2026-04-30 18:51 | 51.37719 | -1.22894 | 39164 ft | 423 kts | 182° |
| 2026-04-30 18:52 | 51.31860 | -1.23363 | 39154 ft | 421 kts | 181° |
| 2026-04-30 18:52 | 51.26024 | -1.23859 | 39151 ft | 419 kts | 182° |
| 2026-04-30 18:53 | 51.20204 | -1.24397 | 39153 ft | 419 kts | 185° |
| 2026-04-30 18:53 | 51.14513 | -1.26453 | 39156 ft | 421 kts | 194° |
| 2026-04-30 18:54 | 51.08847 | -1.28920 | 39165 ft | 423 kts | 193° |
| 2026-04-30 18:54 | 51.04046 | -1.30948 | 39160 ft | 424 kts | 193° |
| 2026-04-30 18:55 | 50.98320 | -1.33329 | 39163 ft | 426 kts | 193° |
| 2026-04-30 18:55 | 50.92864 | -1.37059 | 39151 ft | 432 kts | 211° |
| 2026-04-30 18:55 | 50.90359 | -1.39687 | 39167 ft | 433 kts | 212° |
| 2026-04-30 18:56 | 50.82866 | -1.47642 | 39148 ft | 435 kts | 211° |
| 2026-04-30 18:57 | 50.75290 | -1.55538 | 39125 ft | 435 kts | 211° |
| 2026-04-30 18:57 | 50.70200 | -1.60801 | 39126 ft | 434 kts | 211° |
| 2026-04-30 18:58 | 50.62664 | -1.68571 | 39118 ft | 432 kts | 211° |
| 2026-04-30 18:59 | 50.55128 | -1.76315 | 39099 ft | 430 kts | 211° |
| 2026-04-30 19:00 | 50.45112 | -1.86510 | 39119 ft | 428 kts | 210° |
| 2026-04-30 19:01 | 50.35128 | -1.96603 | 39096 ft | 427 kts | 211° |
| 2026-04-30 19:02 | 50.27638 | -2.04122 | 39090 ft | 426 kts | 208° |
| 2026-04-30 19:02 | 50.22172 | -2.07418 | 39098 ft | 421 kts | 191° |
| 2026-04-30 19:03 | 50.16362 | -2.08409 | 39092 ft | 420 kts | 183° |
| 2026-04-30 19:04 | 50.04655 | -2.09841 | 39095 ft | 424 kts | 184° |
| 2026-04-30 19:05 | 49.92832 | -2.10820 | 39093 ft | 427 kts | 178° |
| 2026-04-30 19:06 | 49.80905 | -2.10561 | 39102 ft | 430 kts | 179° |
| 2026-04-30 19:06 | 49.71961 | -2.10212 | 39097 ft | 431 kts | 171° |
| 2026-04-30 19:07 | 49.63297 | -2.06587 | 39100 ft | 430 kts | 163° |
| 2026-04-30 19:08 | 49.51785 | -2.01449 | 38677 ft | 436 kts | 164° |
| 2026-04-30 19:08 | 49.48871 | -2.00173 | 38142 ft | 433 kts | 164° |
| 2026-04-30 19:09 | 49.43142 | -1.97674 | 37309 ft | 423 kts | 164° |
| 2026-04-30 19:09 | 49.40327 | -1.96449 | 36946 ft | 418 kts | 165° |
| 2026-04-30 19:09 | 49.37541 | -1.95238 | 36553 ft | 414 kts | 165° |
| 2026-04-30 19:10 | 49.32056 | -1.92856 | 35812 ft | 406 kts | 165° |
| 2026-04-30 19:10 | 49.26658 | -1.90518 | 35059 ft | 400 kts | 165° |
| 2026-04-30 19:11 | 49.23990 | -1.89364 | 34691 ft | 397 kts | 165° |
| 2026-04-30 19:11 | 49.18706 | -1.87083 | 33932 ft | 392 kts | 165° |
| 2026-04-30 19:11 | 49.16089 | -1.85955 | 33520 ft | 389 kts | 165° |
| 2026-04-30 19:12 | 49.13493 | -1.84837 | 33132 ft | 386 kts | 165° |
| 2026-04-30 19:12 | 49.10916 | -1.83729 | 32764 ft | 383 kts | 165° |
| 2026-04-30 19:12 | 49.08366 | -1.82633 | 32409 ft | 380 kts | 165° |
| 2026-04-30 19:13 | 49.03320 | -1.80468 | 31702 ft | 374 kts | 165° |
| 2026-04-30 19:13 | 48.98351 | -1.78340 | 31013 ft | 368 kts | 165° |
| 2026-04-30 19:13 | 48.95891 | -1.77288 | 30673 ft | 366 kts | 165° |
| 2026-04-30 19:14 | 48.93445 | -1.76244 | 30338 ft | 364 kts | 165° |
| 2026-04-30 19:14 | 48.90992 | -1.75339 | 29967 ft | 362 kts | 171° |
| 2026-04-30 19:14 | 48.88501 | -1.75065 | 29615 ft | 358 kts | 178° |
| 2026-04-30 19:14 | 48.86018 | -1.75044 | 29254 ft | 355 kts | 179° |
| 2026-04-30 19:15 | 48.83564 | -1.75041 | 28912 ft | 351 kts | 179° |
| 2026-04-30 19:15 | 48.78720 | -1.75025 | 28218 ft | 345 kts | 179° |
| 2026-04-30 19:15 | 48.76326 | -1.75009 | 27862 ft | 343 kts | 179° |
| 2026-04-30 19:16 | 48.73948 | -1.74987 | 27524 ft | 340 kts | 179° |
| 2026-04-30 19:16 | 48.71592 | -1.74963 | 27188 ft | 338 kts | 179° |
| 2026-04-30 19:16 | 48.66930 | -1.74911 | 26533 ft | 333 kts | 179° |
| 2026-04-30 19:17 | 48.64619 | -1.74884 | 26205 ft | 331 kts | 178° |
| 2026-04-30 19:17 | 48.60045 | -1.74829 | 25550 ft | 327 kts | 178° |
| 2026-04-30 19:17 | 48.57778 | -1.74802 | 25233 ft | 325 kts | 178° |
| 2026-04-30 19:18 | 48.54792 | -1.74767 | 24801 ft | 323 kts | 178° |
| 2026-04-30 19:18 | 48.51054 | -1.74722 | 24264 ft | 321 kts | 178° |
| 2026-04-30 19:18 | 48.48820 | -1.74695 | 23944 ft | 320 kts | 178° |
| 2026-04-30 19:19 | 48.46597 | -1.74669 | 23632 ft | 319 kts | 178° |
| 2026-04-30 19:19 | 48.44388 | -1.74643 | 23265 ft | 317 kts | 178° |
| 2026-04-30 19:19 | 48.39994 | -1.74590 | 22596 ft | 314 kts | 178° |
| 2026-04-30 19:20 | 48.37818 | -1.74565 | 22286 ft | 311 kts | 178° |
| 2026-04-30 19:20 | 48.36361 | -1.74547 | 22072 ft | 310 kts | 178° |
| 2026-04-30 19:20 | 48.32081 | -1.74497 | 21454 ft | 306 kts | 178° |
| 2026-04-30 19:21 | 48.29961 | -1.74472 | 21150 ft | 304 kts | 178° |
| 2026-04-30 19:21 | 48.25753 | -1.74422 | 20553 ft | 302 kts | 178° |
| 2026-04-30 19:22 | 48.21523 | -1.74371 | 19950 ft | 308 kts | 179° |
| 2026-04-30 19:22 | 48.14976 | -1.74294 | 19000 ft | 315 kts | 179° |
| 2026-04-30 19:23 | 48.08439 | -1.74218 | 17996 ft | 311 kts | 179° |
| 2026-04-30 19:24 | 48.04243 | -1.75452 | 17368 ft | 307 kts | 197° |
| 2026-04-30 19:24 | 48.02229 | -1.76503 | 17042 ft | 305 kts | 198° |
| 2026-04-30 19:24 | 47.98260 | -1.78594 | 16429 ft | 301 kts | 198° |
| 2026-04-30 19:25 | 47.92297 | -1.80256 | 15277 ft | 293 kts | 161° |
| 2026-04-30 19:26 | 47.88501 | -1.78138 | 14376 ft | 290 kts | 158° |
| 2026-04-30 19:26 | 47.84760 | -1.75974 | 13382 ft | 289 kts | 158° |
| 2026-04-30 19:26 | 47.82881 | -1.74899 | 12839 ft | 289 kts | 159° |
| 2026-04-30 19:27 | 47.79158 | -1.72785 | 11927 ft | 284 kts | 159° |
| 2026-04-30 19:27 | 47.75473 | -1.70709 | 10974 ft | 282 kts | 159° |
| 2026-04-30 19:28 | 47.73647 | -1.69684 | 10549 ft | 280 kts | 159° |
| 2026-04-30 19:28 | 47.70012 | -1.67647 | 9741 ft | 280 kts | 158° |
| 2026-04-30 19:29 | 47.66396 | -1.65625 | 9112 ft | 275 kts | 158° |
| 2026-04-30 19:29 | 47.64612 | -1.64628 | 8811 ft | 273 kts | 158° |
| 2026-04-30 19:30 | 47.59382 | -1.61712 | 8099 ft | 255 kts | 159° |
| 2026-04-30 19:30 | 47.56230 | -1.59958 | 7613 ft | 238 kts | 159° |
| 2026-04-30 19:31 | 47.53180 | -1.58262 | 7079 ft | 226 kts | 159° |
| 2026-04-30 19:31 | 47.51747 | -1.57466 | 6910 ft | 216 kts | 159° |
| 2026-04-30 19:31 | 47.49127 | -1.56012 | 6726 ft | 190 kts | 159° |
| 2026-04-30 19:32 | 47.47899 | -1.55330 | 6461 ft | 188 kts | 159° |
| 2026-04-30 19:32 | 47.46671 | -1.54649 | 6150 ft | 188 kts | 159° |
| 2026-04-30 19:32 | 47.45452 | -1.53973 | 5850 ft | 187 kts | 160° |
| 2026-04-30 19:32 | 47.44232 | -1.53298 | 5565 ft | 187 kts | 160° |
| 2026-04-30 19:33 | 47.43016 | -1.52625 | 5271 ft | 186 kts | 160° |
| 2026-04-30 19:33 | 47.41757 | -1.51928 | 4723 ft | 198 kts | 160° |
| 2026-04-30 19:33 | 47.40517 | -1.51243 | 4765 ft | 189 kts | 160° |
| 2026-04-30 19:33 | 47.39297 | -1.50569 | 4759 ft | 187 kts | 160° |
| 2026-04-30 19:34 | 47.38111 | -1.49791 | 4740 ft | 188 kts | 143° |
| 2026-04-30 19:34 | 47.37235 | -1.48357 | 4766 ft | 189 kts | 132° |
| 2026-04-30 19:34 | 47.35460 | -1.45376 | 4534 ft | 199 kts | 133° |
| 2026-04-30 19:35 | 47.34556 | -1.43868 | 4309 ft | 194 kts | 134° |
| 2026-04-30 19:35 | 47.33636 | -1.42457 | 4091 ft | 187 kts | 147° |
| 2026-04-30 19:35 | 47.32438 | -1.41995 | 3911 ft | 177 kts | 186° |
| 2026-04-30 19:35 | 47.31284 | -1.42585 | 3726 ft | 179 kts | 214° |
| 2026-04-30 19:36 | 47.30323 | -1.43752 | 3554 ft | 180 kts | 218° |
| 2026-04-30 19:36 | 47.29356 | -1.44935 | 3369 ft | 180 kts | 218° |
| 2026-04-30 19:36 | 47.27542 | -1.47171 | 3018 ft | 165 kts | 218° |
| 2026-04-30 19:37 | 47.26663 | -1.48253 | 2722 ft | 164 kts | 218° |
| 2026-04-30 19:37 | 47.25814 | -1.49301 | 2461 ft | 156 kts | 218° |
| 2026-04-30 19:37 | 47.25038 | -1.50259 | 2325 ft | 138 kts | 218° |
| 2026-04-30 19:37 | 47.24318 | -1.51148 | 2021 ft | 134 kts | 218° |
| 2026-04-30 19:38 | 47.23606 | -1.52026 | 1681 ft | 134 kts | 218° |
| 2026-04-30 19:38 | 47.22893 | -1.52906 | 1350 ft | 132 kts | 218° |
| 2026-04-30 19:38 | 47.22225 | -1.53730 | 1162 ft | 115 kts | 218° |
| 2026-04-30 19:38 | 47.21634 | -1.54481 | 960 ft | 114 kts | 219° |
| 2026-04-30 19:39 | 47.20995 | -1.55292 | 938 ft | 133 kts | 219° |
| 2026-04-30 19:39 | 47.20284 | -1.56169 | 982 ft | 134 kts | 219° |
| 2026-04-30 19:39 | 47.19566 | -1.57057 | 909 ft | 136 kts | 219° |
| 2026-04-30 19:39 | 47.18857 | -1.57926 | 728 ft | 129 kts | 220° |
| 2026-04-30 19:40 | 47.18182 | -1.58725 | 539 ft | 121 kts | 219° |
| 2026-04-30 19:40 | 47.17478 | -1.59428 | 366 ft | 123 kts | 211° |
| 2026-04-30 19:40 | 47.16714 | -1.60013 | 208 ft | 124 kts | 209° |
| 2026-04-30 19:40 | 47.15964 | -1.60580 | 89 ft | 115 kts | 210° |
| 2026-04-30 19:41 | 47.15348 | -1.61049 | 86 ft | 79 kts | 207° |
| 2026-04-30 19:41 | 47.14999 | -1.61317 | 87 ft | 36 kts | 206° |
| 2026-04-30 19:41 | 47.14849 | -1.61383 | 90 ft | 16 kts | 153° |
| 2026-04-30 19:41 | 47.14833 | -1.61234 | 91 ft | 16 kts | 73° |
| 2026-04-30 19:42 | 47.14901 | -1.61122 | 89 ft | 15 kts | 28° |
| 2026-04-30 19:42 | 47.14993 | -1.61052 | 87 ft | 14 kts | 27° |
| 2026-04-30 19:42 | 47.15081 | -1.60987 | 91 ft | 14 kts | 26° |
| 2026-04-30 19:42 | 47.15165 | -1.60925 | 89 ft | 13 kts | 27° |
| 2026-04-30 19:43 | 47.15244 | -1.60862 | 90 ft | 13 kts | 28° |
| 2026-04-30 19:43 | 47.15322 | -1.60801 | 91 ft | 12 kts | 28° |
| 2026-04-30 19:43 | 47.15397 | -1.60743 | 91 ft | 12 kts | 27° |
| 2026-04-30 19:44 | 47.15553 | -1.60625 | 92 ft | 14 kts | 33° |
| 2026-04-30 19:44 | 47.15568 | -1.60506 | 91 ft | 13 kts | 119° |
| 2026-04-30 19:44 | 47.15524 | -1.60394 | 94 ft | 13 kts | 101° |
| 2026-04-30 19:44 | 47.15556 | -1.60290 | 92 ft | 10 kts | 40° |
| 2026-04-30 19:45 | 47.15582 | -1.60238 | 89 ft | 0 kts | 64° |
| 2026-04-30 19:45 | 47.15585 | -1.60221 | 89 ft | 4 kts | 79° |
| 2026-04-30 19:45 | 47.15581 | -1.60143 | 90 ft | 6 kts | 50° |
| 2026-04-30 19:45 | 47.15622 | -1.60113 | 90 ft | 7 kts | 18° |
| 2026-04-30 19:46 | 47.15636 | -1.60105 | 89 ft | 0 kts | 19° |